sensor_id;sensor_type;location;lat;lon;timestamp;P1;P2;P0
68341;PMS7003;55668;52.310;21.066;2023-04-24T00:11:30;14;14;
68341;PMS7003;55668;52.310;21.066;2023-04-24T00:26:05;14;14;
68341;PMS7003;55668;52.310;21.066;2023-04-24T00:41:49;15;15;
68341;PMS7003;55668;52.310;21.066;2023-04-24T00:56:10;13;13;
68341;PMS7003;55668;52.310;21.066;2023-04-24T01:10:00;13;13;
68341;PMS7003;55668;52.310;21.066;2023-04-24T01:27:51;11;11;
68341;PMS7003;55668;52.310;21.066;2023-04-24T01:40:43;14;13;
68341;PMS7003;55668;52.310;21.066;2023-04-24T01:57:16;13;13;
68341;PMS7003;55668;52.310;21.066;2023-04-24T02:12:23;15;15;
68341;PMS7003;55668;52.310;21.066;2023-04-24T02:26:52;14;14;
68341;PMS7003;55668;52.310;21.066;2023-04-24T02:58:44;15;14;
68341;PMS7003;55668;52.310;21.066;2023-04-24T03:14:30;15;14;
68341;PMS7003;55668;52.310;21.066;2023-04-24T03:29:06;15;15;
68341;PMS7003;55668;52.310;21.066;2023-04-24T03:45:15;17;17;
68341;PMS7003;55668;52.310;21.066;2023-04-24T04:01:04;15;15;
68341;PMS7003;55668;52.310;21.066;2023-04-24T04:30:08;17;17;
68341;PMS7003;55668;52.310;21.066;2023-04-24T04:44:56;14;13;
68341;PMS7003;55668;52.310;21.066;2023-04-24T05:00:29;15;15;
68341;PMS7003;55668;52.310;21.066;2023-04-24T05:16:20;19;19;
68341;PMS7003;55668;52.310;21.066;2023-04-24T05:30:59;15;15;
68341;PMS7003;55668;52.310;21.066;2023-04-24T05:49:33;16;16;
68341;PMS7003;55668;52.310;21.066;2023-04-24T06:01:40;11;11;
68341;PMS7003;55668;52.310;21.066;2023-04-24T06:17:24;17;16;
68341;PMS7003;55668;52.310;21.066;2023-04-24T06:33:25;15;15;
68341;PMS7003;55668;52.310;21.066;2023-04-24T06:49:39;14;14;
68341;PMS7003;55668;52.310;21.066;2023-04-24T07:03:11;18;17;
68341;PMS7003;55668;52.310;21.066;2023-04-24T07:19:10;21;21;
68341;PMS7003;55668;52.310;21.066;2023-04-24T07:36:00;25;25;
68341;PMS7003;55668;52.310;21.066;2023-04-24T07:50:55;24;24;
68341;PMS7003;55668;52.310;21.066;2023-04-24T08:05:03;25;25;
68341;PMS7003;55668;52.310;21.066;2023-04-24T08:39:52;19;19;
68341;PMS7003;55668;52.310;21.066;2023-04-24T08:56:06;20;20;
68341;PMS7003;55668;52.310;21.066;2023-04-24T09:07:34;21;21;
68341;PMS7003;55668;52.310;21.066;2023-04-24T09:22:04;20;20;
68341;PMS7003;55668;52.310;21.066;2023-04-24T09:40:18;21;21;
68341;PMS7003;55668;52.310;21.066;2023-04-24T09:54:52;17;17;
68341;PMS7003;55668;52.310;21.066;2023-04-24T10:08:03;16;16;
68341;PMS7003;55668;52.310;21.066;2023-04-24T10:23:01;19;17;
68341;PMS7003;55668;52.310;21.066;2023-04-24T10:40:08;15;15;
68341;PMS7003;55668;52.310;21.066;2023-04-24T10:55:40;21;18;
68341;PMS7003;55668;52.310;21.066;2023-04-24T11:02:46;21;18;
68341;PMS7003;55668;52.310;21.066;2023-04-24T11:21:23;18;18;
68341;PMS7003;55668;52.310;21.066;2023-04-24T11:31:56;19;18;
68341;PMS7003;55668;52.310;21.066;2023-04-24T12:04:39;14;14;
68341;PMS7003;55668;52.310;21.066;2023-04-24T12:37:45;16;16;
68341;PMS7003;55668;52.310;21.066;2023-04-24T13:19:37;11;11;
68341;PMS7003;55668;52.310;21.066;2023-04-24T13:35:26;10;10;
68341;PMS7003;55668;52.310;21.066;2023-04-24T13:52:28;9;9;
68341;PMS7003;55668;52.310;21.066;2023-04-24T14:05:22;9;9;
68341;PMS7003;55668;52.310;21.066;2023-04-24T14:24:06;11;11;
68341;PMS7003;55668;52.310;21.066;2023-04-24T14:42:27;10;10;
68341;PMS7003;55668;52.310;21.066;2023-04-24T14:54:37;10;10;
68341;PMS7003;55668;52.310;21.066;2023-04-24T15:08:54;12;12;
68341;PMS7003;55668;52.310;21.066;2023-04-24T15:40:12;17;17;
68341;PMS7003;55668;52.310;21.066;2023-04-24T15:59:16;13;13;
68341;PMS7003;55668;52.310;21.066;2023-04-24T16:08:26;16;16;
68341;PMS7003;55668;52.310;21.066;2023-04-24T16:56:51;15;15;
68341;PMS7003;55668;52.310;21.066;2023-04-24T17:10:33;21;19;
68341;PMS7003;55668;52.310;21.066;2023-04-24T17:25:21;16;16;
68341;PMS7003;55668;52.310;21.066;2023-04-24T17:40:43;19;19;
68341;PMS7003;55668;52.310;21.066;2023-04-24T17:56:03;16;16;
68341;PMS7003;55668;52.310;21.066;2023-04-24T18:14:00;17;17;
68341;PMS7003;55668;52.310;21.066;2023-04-24T18:27:35;16;16;
68341;PMS7003;55668;52.310;21.066;2023-04-24T18:41:52;14;14;
68341;PMS7003;55668;52.310;21.066;2023-04-24T18:58:04;12;12;
68341;PMS7003;55668;52.310;21.066;2023-04-24T19:13:23;12;12;
68341;PMS7003;55668;52.310;21.066;2023-04-24T19:28:14;14;14;
68341;PMS7003;55668;52.310;21.066;2023-04-24T19:43:17;19;18;
68341;PMS7003;55668;52.310;21.066;2023-04-24T20:01:02;18;18;
68341;PMS7003;55668;52.310;21.066;2023-04-24T20:14:28;15;15;
68341;PMS7003;55668;52.310;21.066;2023-04-24T21:18:50;14;13;
68341;PMS7003;55668;52.310;21.066;2023-04-24T21:31:15;14;14;
68341;PMS7003;55668;52.310;21.066;2023-04-24T21:46:16;14;14;
68341;PMS7003;55668;52.310;21.066;2023-04-24T22:01:28;15;15;
68341;PMS7003;55668;52.310;21.066;2023-04-24T22:17:27;14;14;
68341;PMS7003;55668;52.310;21.066;2023-04-24T22:32:39;15;15;
68341;PMS7003;55668;52.310;21.066;2023-04-24T22:48:40;15;15;
68341;PMS7003;55668;52.310;21.066;2023-04-24T23:04:47;15;15;
68341;PMS7003;55668;52.310;21.066;2023-04-24T23:34:46;19;19;
68341;PMS7003;55668;52.310;21.066;2023-04-24T23:53:00;19;19;
